Huvudsida
METAR-TAF:

METAR-TAF

Flygplatser :

Leite Lopes Airport

Ribeirão Preto, São Paulo, Brasilien

latitud: 21-08S, longitud: 047-47W, höjd: 549 m

Aktuellt väderrapport

Denna rapport gjordes för 37 minuter sedan, klockan 20:00 UTC
Vind 4 kt från ost, varierande mellan ost/nordost och sydost
Temperatur 26°C
Fuktighet 28%
Tryck 1018 hPa
Sikt 10 km eller mer
Inga moln under 1 500 m eller inga cumulonimbus

METAR: SBRP 292000Z 10004KT 060V140 CAVOK 26/06 Q1018

Tid: 17:37 (20:37 UTC)

Väderprognos

Denna rapport gjordes för 4 timmar och 15 minuter sedan, klockan 16:22 UTC
Prognos gäller från 29 kl. 18 UTC till 30 kl. 06 UTC
Vind 7 kt från ost/sydost
Sikt 10 km eller mer
Inga moln under 1 500 m eller inga cumulonimbus
Sannolikhet 30%
från 29 kl. 18 UTC till 29 kl. 21 UTC
Vind 5 kt från ost/nordost
Blir
från 29 kl. 23 UTC till 30 kl. 01 UTC
Vind 4 kt från ost/sydost

TAF: SBRP 291622Z 2918/3006 12007KT CAVOK TX27/2918Z TN12/3005Z PROB30 2918/2921 06005KT BECMG 2923/3001 12004KT RMK PGO

Aktuella väderrapporter och prognoser från 4000 flygplatser (METAR- och TAF-rapporter).

De tillgängliga stationerna syns som gula och röda prickar på kartan.

För musen över prickarna för att se namnen på stationerna.

Klicka sedan för att få väderrapporter och prognoser.

För att ändra kartan: Klicka på de gröna knapparna med ett svart kors på för att zooma in; den gröna knappen med ett streck på för att zooma ut; eller på de gröna pilarna för angränsande kartor.


METAR-TAF: